createdAt,value
2024-04-25T00:01:43.539Z,16.50
2024-04-25T00:04:10.842Z,17.00
2024-04-25T00:06:38.191Z,17.20
2024-04-25T00:09:05.516Z,17.20
2024-04-25T00:11:32.856Z,19.40
2024-04-25T00:14:00.341Z,18.90
2024-04-25T00:16:27.800Z,20.60
2024-04-25T00:18:55.106Z,19.60
2024-04-25T00:21:22.450Z,18.90
2024-04-25T00:23:49.802Z,19.30
2024-04-25T00:26:17.208Z,18.20
2024-04-25T00:28:44.481Z,18.60
2024-04-25T00:31:11.794Z,17.70
2024-04-25T00:33:39.175Z,16.40
2024-04-25T00:36:09.724Z,15.50
2024-04-25T00:41:04.872Z,15.30
2024-04-25T00:43:32.758Z,14.80
2024-04-25T00:46:00.165Z,15.30
2024-04-25T00:48:31.539Z,16.90
2024-04-25T00:51:02.614Z,16.90
2024-04-25T00:53:30.659Z,17.60
2024-04-25T00:55:58.247Z,17.10
2024-04-25T00:58:25.635Z,18.00
2024-04-25T01:00:53.059Z,18.10
2024-04-25T01:03:20.505Z,18.00
2024-04-25T01:05:47.973Z,18.00
2024-04-25T01:08:16.111Z,18.90
2024-04-25T01:10:44.105Z,18.70
2024-04-25T01:13:11.661Z,17.10
2024-04-25T01:15:38.917Z,16.60
2024-04-25T01:18:06.272Z,16.60
2024-04-25T01:20:36.158Z,13.80
2024-04-25T01:23:04.893Z,12.20
2024-04-25T01:25:32.198Z,10.80
2024-04-25T01:27:59.480Z,10.30
2024-04-25T01:30:28.298Z,9.30
2024-04-25T01:32:55.935Z,8.70
2024-04-25T01:35:24.926Z,9.00
2024-04-25T01:37:52.190Z,8.20
2024-04-25T01:40:19.559Z,8.50
2024-04-25T01:42:46.834Z,8.80
2024-04-25T01:45:14.166Z,8.70
2024-04-25T01:47:41.640Z,8.60
2024-04-25T01:50:09.059Z,8.40
2024-04-25T01:52:36.413Z,8.40
2024-04-25T01:55:03.911Z,8.00
2024-04-25T01:57:31.325Z,8.60
2024-04-25T01:59:58.666Z,7.90
2024-04-25T02:02:26.099Z,8.10
2024-04-25T02:04:53.532Z,7.90
2024-04-25T02:07:21.563Z,8.10
2024-04-25T02:09:48.775Z,8.20
2024-04-25T02:12:16.130Z,7.70
2024-04-25T02:14:43.428Z,8.00
2024-04-25T02:17:11.233Z,7.90
2024-04-25T02:19:38.556Z,7.80
2024-04-25T02:22:24.531Z,7.80
2024-04-25T02:25:10.464Z,7.90
2024-04-25T02:27:37.779Z,7.60
2024-04-25T02:30:05.931Z,9.20
2024-04-25T02:32:33.315Z,9.80
2024-04-25T02:35:00.698Z,11.20
2024-04-25T02:37:28.404Z,14.50
2024-04-25T02:39:55.783Z,10.50
2024-04-25T02:42:23.051Z,9.60
2024-04-25T02:44:50.373Z,8.40
2024-04-25T02:47:17.855Z,10.90
2024-04-25T02:49:45.279Z,7.70
2024-04-25T02:52:12.545Z,8.00
2024-04-25T02:54:39.820Z,8.70
2024-04-25T02:57:07.132Z,8.20
2024-04-25T02:59:34.609Z,7.50
2024-04-25T03:02:04.446Z,7.60
2024-04-25T03:04:31.925Z,7.30
2024-04-25T03:06:59.217Z,8.30
2024-04-25T03:09:26.467Z,7.10
2024-04-25T03:11:53.843Z,7.30
2024-04-25T03:14:21.883Z,11.50
2024-04-25T03:16:49.376Z,11.30
2024-04-25T03:19:16.757Z,8.20
2024-04-25T03:21:43.990Z,8.00
2024-04-25T03:24:11.423Z,8.50
2024-04-25T03:26:38.795Z,7.00
2024-04-25T03:29:06.997Z,6.20
2024-04-25T03:31:34.613Z,6.80
2024-04-25T03:34:01.984Z,6.80
2024-04-25T03:36:29.263Z,7.20
2024-04-25T03:38:56.994Z,6.90
2024-04-25T03:41:25.348Z,7.10
2024-04-25T03:43:52.652Z,8.50
2024-04-25T03:46:19.906Z,6.40
2024-04-25T03:48:47.778Z,12.10
2024-04-25T03:51:15.253Z,12.80
2024-04-25T03:53:42.661Z,9.50
2024-04-25T03:56:10.075Z,8.70
2024-04-25T03:58:37.446Z,5.80
2024-04-25T04:01:04.921Z,5.20
2024-04-25T04:03:32.247Z,6.50
2024-04-25T04:05:59.537Z,6.10
2024-04-25T04:08:27.383Z,5.40
2024-04-25T04:10:54.803Z,5.60
2024-04-25T04:13:22.111Z,5.20
2024-04-25T04:15:49.829Z,5.30
2024-04-25T04:18:17.219Z,5.60
2024-04-25T04:20:46.096Z,5.90
2024-04-25T04:23:13.498Z,6.80
2024-04-25T04:25:41.088Z,6.10
2024-04-25T04:28:09.688Z,7.00
2024-04-25T04:30:38.336Z,6.50
2024-04-25T04:33:05.958Z,6.20
2024-04-25T04:35:33.407Z,5.60
2024-04-25T04:38:01.179Z,5.10
2024-04-25T04:40:29.369Z,5.10
2024-04-25T04:42:56.638Z,4.80
2024-04-25T04:45:23.990Z,4.10
2024-04-25T04:47:51.342Z,4.60
2024-04-25T04:50:20.506Z,4.70
2024-04-25T04:52:48.095Z,5.20
2024-04-25T04:55:15.477Z,4.90
2024-04-25T04:57:42.857Z,5.10
2024-04-25T05:00:11.678Z,4.80
2024-04-25T05:02:39.120Z,5.20
2024-04-25T05:05:07.314Z,5.30
2024-04-25T05:07:38.292Z,5.90
2024-04-25T05:10:06.286Z,5.90
2024-04-25T05:12:33.672Z,6.50
2024-04-25T05:15:01.070Z,6.30
2024-04-25T05:17:28.531Z,5.70
2024-04-25T05:19:55.951Z,6.00
2024-04-25T05:22:23.393Z,6.20
2024-04-25T05:24:50.730Z,6.70
2024-04-25T05:27:18.061Z,6.50
2024-04-25T05:29:45.495Z,7.00
2024-04-25T05:32:12.897Z,9.40
2024-04-25T05:34:40.821Z,7.10
2024-04-25T05:37:08.152Z,5.10
2024-04-25T05:39:35.558Z,4.90
2024-04-25T05:42:03.002Z,4.40
2024-04-25T05:44:30.491Z,3.50
2024-04-25T05:46:58.923Z,6.70
2024-04-25T05:49:26.351Z,3.30
2024-04-25T05:51:53.725Z,2.80
2024-04-25T05:54:21.031Z,2.90
2024-04-25T05:56:48.521Z,2.70
2024-04-25T05:59:17.119Z,3.30
2024-04-25T06:01:44.556Z,3.20
2024-04-25T06:04:12.001Z,3.20
2024-04-25T06:06:39.335Z,2.30
2024-04-25T06:09:06.677Z,2.70
2024-04-25T06:11:34.978Z,3.20
2024-04-25T06:14:02.789Z,2.80
2024-04-25T06:16:30.129Z,2.90
2024-04-25T06:18:57.626Z,3.10
2024-04-25T06:21:24.929Z,2.60
2024-04-25T06:23:52.195Z,2.80
2024-04-25T06:26:19.546Z,2.80
2024-04-25T06:28:47.020Z,3.40
2024-04-25T06:31:14.588Z,3.30
2024-04-25T06:33:41.930Z,2.80
2024-04-25T06:36:09.724Z,3.30
2024-04-25T06:38:37.438Z,3.20
2024-04-25T06:41:04.973Z,3.90
2024-04-25T06:43:35.113Z,2.80
2024-04-25T06:46:03.233Z,3.10
2024-04-25T06:48:30.671Z,2.80
2024-04-25T06:50:58.159Z,2.50
2024-04-25T06:53:25.596Z,3.10
2024-04-25T06:55:53.028Z,3.50
2024-04-25T06:58:20.989Z,3.20
2024-04-25T07:00:48.506Z,2.70
2024-04-25T07:05:29.622Z,2.90
2024-04-25T07:07:57.760Z,2.80
2024-04-25T07:10:25.001Z,2.70
2024-04-25T07:12:52.306Z,2.70
2024-04-25T07:15:22.598Z,3.70
2024-04-25T07:17:51.118Z,2.80
2024-04-25T07:20:18.749Z,2.90
2024-04-25T07:22:46.189Z,2.90
2024-04-25T07:25:15.078Z,2.90
2024-04-25T07:27:42.383Z,3.20
2024-04-25T07:30:13.282Z,3.50
2024-04-25T07:32:41.025Z,3.20
2024-04-25T07:35:08.634Z,2.90
2024-04-25T07:37:36.603Z,2.60
2024-04-25T07:40:05.469Z,2.70
2024-04-25T07:42:32.828Z,3.10
2024-04-25T07:45:02.574Z,2.30
2024-04-25T07:47:30.385Z,2.30
2024-04-25T07:49:58.873Z,2.50
2024-04-25T07:52:29.535Z,2.50
2024-04-25T07:54:57.254Z,2.50
2024-04-25T07:57:26.659Z,2.70
2024-04-25T07:59:55.700Z,2.90
2024-04-25T08:02:23.617Z,2.60
2024-04-25T08:04:51.124Z,2.50
2024-04-25T08:07:18.531Z,3.10
2024-04-25T08:09:45.853Z,2.80
2024-04-25T08:12:13.202Z,3.10
2024-04-25T08:14:45.490Z,2.60
2024-04-25T08:17:13.165Z,2.50
2024-04-25T08:19:40.455Z,2.70
2024-04-25T08:22:07.835Z,2.60
2024-04-25T08:24:35.334Z,2.40
2024-04-25T08:27:02.695Z,2.60
2024-04-25T08:29:30.167Z,2.40
2024-04-25T08:31:57.556Z,2.10
2024-04-25T08:34:25.139Z,2.30
2024-04-25T08:36:52.564Z,2.40
2024-04-25T08:39:19.879Z,3.00
2024-04-25T08:41:49.322Z,2.80
2024-04-25T08:44:17.380Z,2.70
2024-04-25T08:46:45.388Z,3.00
2024-04-25T08:49:12.682Z,3.00
2024-04-25T08:51:40.398Z,3.50
2024-04-25T08:54:07.919Z,3.30
2024-04-25T08:56:35.343Z,3.20
2024-04-25T08:59:02.797Z,3.30
2024-04-25T09:01:30.675Z,3.50
2024-04-25T09:03:59.043Z,3.70
2024-04-25T09:06:29.167Z,3.70
2024-04-25T09:08:57.020Z,3.90
2024-04-25T09:11:24.939Z,4.10
2024-04-25T09:13:56.118Z,4.10
2024-04-25T09:16:26.728Z,4.70
2024-04-25T09:18:54.314Z,4.20
2024-04-25T09:21:21.764Z,4.80
2024-04-25T09:23:49.259Z,5.80
2024-04-25T09:26:16.805Z,5.30
2024-04-25T09:28:45.150Z,5.00
2024-04-25T09:31:12.935Z,4.90
2024-04-25T09:33:40.491Z,4.30
2024-04-25T09:36:11.015Z,4.50
2024-04-25T09:41:05.937Z,3.80
2024-04-25T09:43:33.388Z,3.90
2024-04-25T09:46:02.869Z,3.50
2024-04-25T09:48:32.791Z,3.30
2024-04-25T09:51:07.127Z,3.70
2024-04-25T09:54:01.306Z,3.10
2024-04-25T09:56:30.588Z,3.20
2024-04-25T09:59:07.690Z,3.70
2024-04-25T10:01:35.271Z,3.10
2024-04-25T10:04:02.752Z,3.20
2024-04-25T10:06:30.695Z,3.20
2024-04-25T10:08:58.762Z,3.20
2024-04-25T10:11:29.420Z,3.20
2024-04-25T10:13:57.062Z,3.00
2024-04-25T10:16:24.398Z,2.90
2024-04-25T10:18:52.718Z,3.00
2024-04-25T10:21:21.046Z,2.50
2024-04-25T10:23:50.819Z,2.50
2024-04-25T10:26:18.978Z,2.70
2024-04-25T10:29:04.475Z,2.70
2024-04-25T10:31:36.907Z,3.10
2024-04-25T10:34:08.180Z,2.20
2024-04-25T10:36:36.838Z,2.40
2024-04-25T10:39:08.494Z,2.20
2024-04-25T10:41:38.717Z,2.10
2024-04-25T10:44:06.938Z,2.10
2024-04-25T10:46:34.855Z,2.40
2024-04-25T10:49:04.178Z,2.40
2024-04-25T10:51:33.242Z,1.70
2024-04-25T10:54:00.828Z,2.50
2024-04-25T10:56:28.264Z,2.10
2024-04-25T10:58:56.840Z,2.10
2024-04-25T11:01:25.118Z,2.50
2024-04-25T11:03:54.614Z,2.10
2024-04-25T11:06:22.698Z,2.00
2024-04-25T11:08:50.319Z,1.80
2024-04-25T11:11:17.934Z,1.90
2024-04-25T11:13:45.782Z,2.30
2024-04-25T11:16:13.150Z,2.10
2024-04-25T11:18:40.900Z,2.10
2024-04-25T11:21:08.818Z,2.20
2024-04-25T11:23:36.611Z,2.10
2024-04-25T11:26:05.383Z,2.20
2024-04-25T11:28:33.216Z,2.20
2024-04-25T11:31:03.006Z,2.20
2024-04-25T11:33:32.152Z,2.20
2024-04-25T11:35:59.697Z,2.10
2024-04-25T11:38:30.009Z,2.00
2024-04-25T11:43:26.482Z,2.00
2024-04-25T11:45:53.974Z,2.20
2024-04-25T11:48:23.154Z,1.90
2024-04-25T11:50:50.988Z,1.60
2024-04-25T11:53:18.524Z,1.90
2024-04-25T11:55:47.235Z,2.00
2024-04-25T11:58:14.846Z,2.00
2024-04-25T12:00:49.105Z,1.80
2024-04-25T12:03:16.863Z,1.70
2024-04-25T12:05:44.275Z,2.10
2024-04-25T12:08:11.897Z,1.90
2024-04-25T12:10:39.720Z,1.80
2024-04-25T12:13:09.335Z,1.40
2024-04-25T12:15:37.101Z,1.20
2024-04-25T12:18:05.500Z,1.10
2024-04-25T12:20:33.150Z,1.00
2024-04-25T12:23:00.584Z,1.20
2024-04-25T12:25:27.942Z,1.80
2024-04-25T12:27:55.299Z,1.40
2024-04-25T12:30:22.672Z,1.00
2024-04-25T12:32:50.072Z,1.30
2024-04-25T12:35:17.804Z,1.20
2024-04-25T12:37:45.274Z,1.10
2024-04-25T12:40:12.798Z,1.20
2024-04-25T12:42:40.143Z,1.10
2024-04-25T12:45:07.712Z,1.20
2024-04-25T12:47:36.286Z,1.50
2024-04-25T12:50:04.471Z,1.30
2024-04-25T12:52:32.730Z,1.10
2024-04-25T12:55:00.503Z,1.10
2024-04-25T12:57:28.056Z,1.10
2024-04-25T12:59:55.634Z,1.40
2024-04-25T13:02:23.230Z,1.10
2024-04-25T13:04:50.771Z,1.00
2024-04-25T13:07:18.399Z,1.20
2024-04-25T13:09:45.872Z,1.50
2024-04-25T13:12:13.315Z,1.10
2024-04-25T13:14:40.698Z,1.20
2024-04-25T13:17:08.230Z,1.20
2024-04-25T13:19:35.580Z,1.10
2024-04-25T13:22:06.370Z,1.00
2024-04-25T13:24:34.020Z,1.40
2024-04-25T13:27:03.158Z,1.30
2024-04-25T13:29:31.234Z,1.10
2024-04-25T13:31:58.786Z,1.20
2024-04-25T13:34:26.377Z,1.10
2024-04-25T13:36:56.055Z,1.20
2024-04-25T13:39:23.515Z,1.20
2024-04-25T13:41:51.080Z,1.30
2024-04-25T13:44:18.696Z,1.40
2024-04-25T13:46:46.136Z,1.60
2024-04-25T13:49:13.887Z,1.30
2024-04-25T13:51:41.578Z,1.20
2024-04-25T13:54:09.005Z,1.00
2024-04-25T13:56:36.515Z,1.20
2024-04-25T13:59:03.937Z,1.40
2024-04-25T14:01:31.317Z,1.20
2024-04-25T14:03:58.771Z,1.30
2024-04-25T14:06:26.331Z,1.30
2024-04-25T14:08:53.693Z,1.30
2024-04-25T14:11:21.162Z,1.10
2024-04-25T14:13:49.528Z,1.30
2024-04-25T14:16:17.135Z,1.20
2024-04-25T14:18:44.679Z,1.30
2024-04-25T14:21:12.440Z,1.40
2024-04-25T14:23:41.357Z,1.40
2024-04-25T14:26:27.509Z,1.40
2024-04-25T14:28:57.235Z,1.40
2024-04-25T14:31:24.661Z,1.30
2024-04-25T14:33:52.194Z,1.70
2024-04-25T14:36:19.681Z,1.60
2024-04-25T14:38:47.047Z,1.40
2024-04-25T14:41:14.766Z,1.60
2024-04-25T14:43:43.019Z,1.60
2024-04-25T14:46:10.750Z,1.50
2024-04-25T14:48:38.269Z,1.70
2024-04-25T14:51:05.860Z,1.70
2024-04-25T14:53:33.407Z,1.20
2024-04-25T14:56:00.974Z,1.60
2024-04-25T14:58:29.375Z,2.10
2024-04-25T15:00:57.100Z,2.10
2024-04-25T15:03:24.574Z,2.00
2024-04-25T15:05:52.192Z,1.90
2024-04-25T15:08:19.658Z,2.10
2024-04-25T15:10:47.713Z,1.80
2024-04-25T15:13:21.596Z,1.60
2024-04-25T15:15:52.376Z,2.00
2024-04-25T15:18:19.973Z,2.30
2024-04-25T15:20:47.362Z,2.00
2024-04-25T15:23:15.232Z,2.00
2024-04-25T15:25:42.754Z,2.40
2024-04-25T15:28:11.454Z,2.10
2024-04-25T15:30:41.980Z,2.00
2024-04-25T15:33:09.504Z,1.90
2024-04-25T15:35:37.126Z,1.70
2024-04-25T15:38:04.969Z,1.60
2024-04-25T15:40:32.456Z,1.90
2024-04-25T15:42:59.874Z,1.60
2024-04-25T15:45:28.362Z,1.70
2024-04-25T15:47:55.973Z,1.90
2024-04-25T15:50:23.553Z,1.80
2024-04-25T15:52:51.008Z,2.10
2024-04-25T15:55:18.456Z,2.20
2024-04-25T15:57:46.122Z,2.30
2024-04-25T16:00:14.184Z,1.80
2024-04-25T16:02:41.726Z,2.20
2024-04-25T16:05:09.519Z,2.20
2024-04-25T16:07:38.017Z,2.20
2024-04-25T16:10:06.188Z,2.20
2024-04-25T16:12:33.948Z,2.10
2024-04-25T16:15:01.626Z,2.30
2024-04-25T16:17:29.029Z,2.20
2024-04-25T16:19:56.650Z,2.30
2024-04-25T16:22:23.949Z,2.40
2024-04-25T16:24:51.267Z,2.30
2024-04-25T16:27:18.701Z,2.20
2024-04-25T16:29:46.632Z,2.20
2024-04-25T16:32:14.263Z,2.10
2024-04-25T16:34:41.884Z,2.00
2024-04-25T16:37:09.441Z,2.20
2024-04-25T16:39:36.851Z,2.20
2024-04-25T16:42:04.722Z,2.30
2024-04-25T16:44:32.239Z,2.30
2024-04-25T16:47:02.188Z,2.40
2024-04-25T16:49:29.548Z,2.20
2024-04-25T16:51:57.070Z,2.40
2024-04-25T16:54:28.408Z,2.30
2024-04-25T16:56:56.356Z,2.60
2024-04-25T16:59:23.860Z,2.20
2024-04-25T17:01:51.293Z,2.30
2024-04-25T17:04:18.634Z,2.40
2024-04-25T17:06:52.491Z,2.20
2024-04-25T17:09:20.939Z,2.10
2024-04-25T17:11:48.349Z,2.60
2024-04-25T17:14:16.199Z,2.90
2024-04-25T17:16:44.993Z,2.60
2024-04-25T17:19:12.547Z,2.60
2024-04-25T17:21:42.259Z,2.70
2024-04-25T17:24:09.651Z,3.20
2024-04-25T17:26:41.444Z,2.80
2024-04-25T17:29:09.667Z,3.10
2024-04-25T17:31:38.271Z,3.30
2024-04-25T17:34:06.394Z,3.20
2024-04-25T17:36:33.975Z,3.50
2024-04-25T17:39:01.339Z,3.40
2024-04-25T17:41:28.622Z,3.90
2024-04-25T17:43:56.128Z,3.90
2024-04-25T17:46:23.489Z,3.90
2024-04-25T17:48:51.783Z,4.00
2024-04-25T17:51:21.125Z,4.20
2024-04-25T17:53:49.601Z,3.80
2024-04-25T17:56:17.793Z,4.30
2024-04-25T17:58:46.101Z,4.10
2024-04-25T18:01:13.604Z,3.60
2024-04-25T18:03:41.085Z,3.80
2024-04-25T18:06:10.573Z,4.30
2024-04-25T18:08:38.280Z,4.20
2024-04-25T18:11:05.627Z,4.60
2024-04-25T18:13:33.315Z,4.10
2024-04-25T18:16:01.298Z,4.10
2024-04-25T18:18:29.291Z,4.30
2024-04-25T18:20:56.996Z,4.50
2024-04-25T18:23:24.456Z,5.20
2024-04-25T18:25:52.004Z,5.60
2024-04-25T18:28:20.946Z,5.50
2024-04-25T18:30:48.553Z,5.30
2024-04-25T18:33:16.119Z,5.20
2024-04-25T18:35:43.621Z,5.50
2024-04-25T18:38:11.144Z,5.60
2024-04-25T18:40:38.497Z,5.50
2024-04-25T18:43:07.341Z,5.00
2024-04-25T18:45:34.804Z,5.00
2024-04-25T18:48:02.377Z,5.20
2024-04-25T18:50:30.135Z,5.30
2024-04-25T18:52:57.567Z,4.90
2024-04-25T18:55:25.022Z,5.50
2024-04-25T18:57:52.372Z,5.60
2024-04-25T19:00:19.839Z,5.40
2024-04-25T19:02:47.491Z,5.00
2024-04-25T19:05:15.352Z,5.00
2024-04-25T19:07:43.225Z,5.30
2024-04-25T19:10:10.584Z,5.40
2024-04-25T19:12:42.010Z,6.00
2024-04-25T19:15:10.049Z,5.50
2024-04-25T19:17:37.478Z,5.40
2024-04-25T19:22:34.232Z,5.30
2024-04-25T19:25:01.703Z,5.40
2024-04-25T19:27:29.045Z,5.50
2024-04-25T19:29:58.160Z,5.60
2024-04-25T19:32:26.158Z,5.60
2024-04-25T19:34:55.693Z,5.50
2024-04-25T19:37:23.182Z,4.30
2024-04-25T19:39:50.847Z,5.40
2024-04-25T19:42:20.058Z,5.30
2024-04-25T19:44:47.623Z,5.50
2024-04-25T19:47:15.145Z,5.70
2024-04-25T19:49:42.679Z,6.00
2024-04-25T19:52:10.960Z,5.80
2024-04-25T19:54:38.455Z,6.50
2024-04-25T19:57:05.808Z,6.30
2024-04-25T19:59:33.617Z,6.20
2024-04-25T20:02:01.779Z,5.70
2024-04-25T20:04:29.420Z,6.30
2024-04-25T20:06:56.934Z,6.30
2024-04-25T20:09:24.389Z,6.00
2024-04-25T20:11:52.031Z,6.00
2024-04-25T20:14:20.261Z,6.00
2024-04-25T20:16:49.812Z,6.30
2024-04-25T20:19:36.141Z,7.20
2024-04-25T20:22:03.592Z,6.20
2024-04-25T20:24:30.996Z,6.10
2024-04-25T20:26:58.507Z,6.60
2024-04-25T20:29:29.642Z,6.10
2024-04-25T20:31:57.750Z,5.90
2024-04-25T20:34:25.233Z,6.50
2024-04-25T20:36:53.041Z,6.00
2024-04-25T20:39:21.405Z,6.30
2024-04-25T20:41:49.052Z,6.10
2024-04-25T20:44:17.806Z,6.10
2024-04-25T20:46:45.340Z,6.90
2024-04-25T20:49:12.872Z,7.30
2024-04-25T20:51:42.638Z,7.40
2024-04-25T20:54:11.978Z,6.60
2024-04-25T20:56:42.718Z,6.70
2024-04-25T20:59:10.184Z,7.10
2024-04-25T21:01:40.392Z,7.10
2024-04-25T21:04:07.819Z,6.50
2024-04-25T21:06:41.838Z,7.30
2024-04-25T21:09:10.966Z,6.60
2024-04-25T21:11:38.967Z,6.70
2024-04-25T21:14:06.456Z,6.70
2024-04-25T21:16:44.215Z,6.60
2024-04-25T21:19:11.734Z,6.90
2024-04-25T21:21:40.379Z,6.60
2024-04-25T21:24:07.859Z,6.10
2024-04-25T21:26:35.311Z,6.40
2024-04-25T21:29:02.761Z,5.60
2024-04-25T21:31:30.216Z,5.40
2024-04-25T21:33:57.640Z,6.30
2024-04-25T21:36:27.073Z,5.30
2024-04-25T21:38:54.615Z,6.10
2024-04-25T21:41:22.205Z,6.40
2024-04-25T21:43:49.869Z,5.70
2024-04-25T21:46:17.434Z,5.70
2024-04-25T21:48:46.906Z,5.90
2024-04-25T21:51:16.139Z,6.00
2024-04-25T21:53:43.483Z,6.40
2024-04-25T21:56:11.020Z,6.80
2024-04-25T21:58:38.451Z,6.30
2024-04-25T22:01:06.296Z,6.30
2024-04-25T22:03:34.895Z,6.30
2024-04-25T22:06:02.592Z,6.70
2024-04-25T22:08:30.097Z,6.30
2024-04-25T22:10:57.886Z,6.60
2024-04-25T22:13:25.243Z,7.80
2024-04-25T22:15:52.705Z,8.20
2024-04-25T22:18:20.131Z,7.20
2024-04-25T22:20:47.684Z,7.70
2024-04-25T22:23:15.280Z,8.30
2024-04-25T22:25:42.557Z,7.80
2024-04-25T22:28:10.089Z,7.70
2024-04-25T22:30:37.570Z,8.00
2024-04-25T22:33:05.343Z,8.80
2024-04-25T22:35:32.812Z,9.30
2024-04-25T22:38:00.225Z,9.70
2024-04-25T22:40:27.604Z,10.00
2024-04-25T22:42:54.933Z,10.20
2024-04-25T22:45:25.224Z,10.10
2024-04-25T22:47:59.318Z,10.40
2024-04-25T22:50:26.766Z,10.40
2024-04-25T22:52:54.183Z,9.90
2024-04-25T22:55:21.646Z,11.80
2024-04-25T22:57:49.021Z,11.50
2024-04-25T23:00:16.981Z,10.90
2024-04-25T23:02:44.874Z,12.30
2024-04-25T23:05:12.595Z,10.70
2024-04-25T23:07:39.960Z,11.30
2024-04-25T23:10:08.362Z,11.30
2024-04-25T23:12:35.796Z,11.70
2024-04-25T23:15:04.587Z,11.40
2024-04-25T23:17:32.053Z,11.00
2024-04-25T23:19:59.627Z,12.20
2024-04-25T23:22:27.153Z,12.00
2024-04-25T23:24:54.617Z,13.40
2024-04-25T23:27:22.096Z,13.70
2024-04-25T23:29:49.447Z,13.50
2024-04-25T23:32:17.060Z,11.80
2024-04-25T23:34:44.411Z,14.30
2024-04-25T23:37:12.178Z,13.90
2024-04-25T23:39:40.340Z,12.70
2024-04-25T23:42:09.529Z,15.00
2024-04-25T23:44:38.279Z,13.60
2024-04-25T23:47:07.361Z,14.20
2024-04-25T23:49:35.001Z,12.90
2024-04-25T23:52:02.386Z,13.10
2024-04-25T23:54:29.900Z,13.80
2024-04-25T23:56:57.303Z,12.50
2024-04-25T23:59:24.954Z,14.10
